createdAt,value
2022-09-26T00:01:28.573Z,64.80
2022-09-26T00:03:58.183Z,65.00
2022-09-26T00:06:26.512Z,65.10
2022-09-26T00:08:54.017Z,65.10
2022-09-26T00:11:26.609Z,65.20
2022-09-26T00:13:55.779Z,65.20
2022-09-26T00:16:23.832Z,65.30
2022-09-26T00:18:53.574Z,65.40
2022-09-26T00:21:21.643Z,65.50
2022-09-26T00:23:49.067Z,65.70
2022-09-26T00:26:18.103Z,65.80
2022-09-26T00:28:46.068Z,65.90
2022-09-26T00:31:19.101Z,65.90
2022-09-26T00:33:47.105Z,66.00
2022-09-26T00:36:14.087Z,66.20
2022-09-26T00:38:41.374Z,66.40
2022-09-26T00:41:09.246Z,66.50
2022-09-26T00:43:43.634Z,66.70
2022-09-26T00:46:42.502Z,66.70
2022-09-26T00:49:24.206Z,67.00
2022-09-26T00:52:04.328Z,67.00
2022-09-26T00:54:31.763Z,67.00
2022-09-26T00:57:05.263Z,67.10
2022-09-26T00:59:37.103Z,67.20
2022-09-26T01:02:04.521Z,67.30
2022-09-26T01:04:34.741Z,67.30
2022-09-26T01:07:06.132Z,67.30
2022-09-26T01:09:33.407Z,67.30
2022-09-26T01:12:03.201Z,67.30
2022-09-26T01:14:31.613Z,67.20
2022-09-26T01:16:58.709Z,67.10
2022-09-26T01:19:47.985Z,67.10
2022-09-26T01:23:09.757Z,67.20
2022-09-26T01:25:57.536Z,67.30
2022-09-26T01:28:30.677Z,67.20
2022-09-26T01:31:19.390Z,67.20
2022-09-26T01:33:49.618Z,67.30
2022-09-26T01:36:29.871Z,67.30
2022-09-26T01:39:13.713Z,67.30
2022-09-26T01:41:54.532Z,67.30
2022-09-26T01:44:50.464Z,67.40
2022-09-26T01:47:23.995Z,67.50
2022-09-26T01:50:00.869Z,67.40
2022-09-26T01:52:55.716Z,67.60
2022-09-26T01:55:38.864Z,67.60
2022-09-26T01:58:16.857Z,67.60
2022-09-26T02:00:47.068Z,67.50
2022-09-26T02:03:18.785Z,67.60
2022-09-26T02:06:03.839Z,67.60
2022-09-26T02:08:44.498Z,67.70
2022-09-26T02:11:19.010Z,67.80
2022-09-26T02:13:55.955Z,67.80
2022-09-26T02:16:27.905Z,67.90
2022-09-26T02:18:59.995Z,67.90
2022-09-26T02:21:27.004Z,67.90
2022-09-26T02:23:54.860Z,68.00
2022-09-26T02:26:23.427Z,67.90
2022-09-26T02:28:51.996Z,68.00
2022-09-26T02:31:24.764Z,68.00
2022-09-26T02:33:54.567Z,68.10
2022-09-26T02:36:23.855Z,68.10
2022-09-26T02:38:50.784Z,68.10
2022-09-26T02:41:52.525Z,68.10
2022-09-26T02:44:32.286Z,68.10
2022-09-26T02:47:09.851Z,68.10
2022-09-26T02:50:08.925Z,68.20
2022-09-26T02:53:06.880Z,68.30
2022-09-26T02:56:07.027Z,68.30
2022-09-26T02:59:21.552Z,68.30
2022-09-26T03:02:02.862Z,68.30
2022-09-26T03:05:13.343Z,68.20
2022-09-26T03:07:46.818Z,68.40
2022-09-26T03:10:15.270Z,68.30
2022-09-26T03:12:44.686Z,68.30
2022-09-26T03:15:13.755Z,68.40
2022-09-26T03:17:52.498Z,68.40
2022-09-26T03:20:21.728Z,68.40
2022-09-26T03:22:50.817Z,68.30
2022-09-26T03:25:24.775Z,68.30
2022-09-26T03:28:07.059Z,68.30
2022-09-26T03:30:34.161Z,68.20
2022-09-26T03:33:21.251Z,68.20
2022-09-26T03:35:49.109Z,68.20
2022-09-26T03:38:16.210Z,68.10
2022-09-26T03:40:50.056Z,68.10
2022-09-26T03:43:41.957Z,68.00
2022-09-26T03:46:09.289Z,68.00
2022-09-26T03:48:37.045Z,68.00
2022-09-26T03:51:06.743Z,68.00
2022-09-26T03:53:35.359Z,67.80
2022-09-26T03:56:12.720Z,67.80
2022-09-26T03:58:39.834Z,67.80
2022-09-26T04:01:12.911Z,67.70
2022-09-26T04:03:47.823Z,67.70
2022-09-26T04:06:20.476Z,67.70
2022-09-26T04:08:50.761Z,67.50
2022-09-26T04:11:20.840Z,67.50
2022-09-26T04:13:52.550Z,67.40
2022-09-26T04:16:24.095Z,67.40
2022-09-26T04:19:04.490Z,67.40
2022-09-26T04:21:34.518Z,67.40
2022-09-26T04:24:02.911Z,67.30
2022-09-26T04:26:30.795Z,67.30
2022-09-26T04:28:59.026Z,67.20
2022-09-26T04:31:52.378Z,67.20
2022-09-26T04:34:27.197Z,67.10
2022-09-26T04:36:55.269Z,67.10
2022-09-26T04:39:23.195Z,67.10
2022-09-26T04:41:50.338Z,67.00
2022-09-26T04:44:17.397Z,67.00
2022-09-26T04:46:44.559Z,66.90
2022-09-26T04:49:12.137Z,66.80
2022-09-26T04:51:39.799Z,66.80
2022-09-26T04:54:06.882Z,66.60
2022-09-26T04:56:38.221Z,66.70
2022-09-26T04:59:07.267Z,66.60
2022-09-26T05:02:08.433Z,66.50
2022-09-26T05:04:40.568Z,66.40
2022-09-26T05:07:07.411Z,66.60
2022-09-26T05:09:36.313Z,66.50
2022-09-26T05:12:20.181Z,66.40
2022-09-26T05:14:51.755Z,66.30
2022-09-26T05:17:21.568Z,66.30
2022-09-26T05:19:49.398Z,66.30
2022-09-26T05:22:16.239Z,66.40
2022-09-26T05:25:01.417Z,66.30
2022-09-26T05:27:28.338Z,66.30
2022-09-26T05:29:56.403Z,66.30
2022-09-26T05:32:24.272Z,66.30
2022-09-26T05:34:51.996Z,66.30
2022-09-26T05:37:21.353Z,66.20
2022-09-26T05:40:07.108Z,66.30
2022-09-26T05:42:38.387Z,66.50
2022-09-26T05:45:06.248Z,66.40
2022-09-26T05:47:37.019Z,66.30
2022-09-26T05:50:09.964Z,66.30
2022-09-26T05:52:39.033Z,66.30
2022-09-26T05:55:07.742Z,66.40
2022-09-26T05:58:00.807Z,66.40
2022-09-26T06:00:47.943Z,66.40
2022-09-26T06:03:15.897Z,66.50
2022-09-26T06:06:14.569Z,66.50
2022-09-26T06:08:42.542Z,66.60
2022-09-26T06:11:27.424Z,66.60
2022-09-26T06:13:55.720Z,66.70
2022-09-26T06:16:22.873Z,66.70
2022-09-26T06:18:52.566Z,66.70
2022-09-26T06:21:21.091Z,66.60
2022-09-26T06:23:51.861Z,66.70
2022-09-26T06:26:26.166Z,66.70
2022-09-26T06:28:58.321Z,66.60
2022-09-26T06:31:27.802Z,66.60
2022-09-26T06:34:10.141Z,66.80
2022-09-26T06:36:55.060Z,67.00
2022-09-26T06:39:22.059Z,67.10
2022-09-26T06:41:49.332Z,67.10
2022-09-26T06:44:30.491Z,67.20
2022-09-26T06:47:14.647Z,67.20
2022-09-26T06:49:41.773Z,67.30
2022-09-26T06:52:34.048Z,67.20
2022-09-26T06:55:07.104Z,67.30
2022-09-26T06:57:40.048Z,67.40
2022-09-26T07:00:13.224Z,67.30
2022-09-26T07:03:19.463Z,67.30
2022-09-26T07:05:56.531Z,67.30
2022-09-26T07:08:50.148Z,67.30
2022-09-26T07:11:35.145Z,67.30
2022-09-26T07:14:02.193Z,67.20
2022-09-26T07:16:33.585Z,67.20
2022-09-26T07:19:22.981Z,67.40
2022-09-26T07:22:02.322Z,67.40
2022-09-26T07:24:40.185Z,67.50
2022-09-26T07:27:07.632Z,67.50
2022-09-26T07:29:34.615Z,67.50
2022-09-26T07:32:01.724Z,67.50
2022-09-26T07:34:59.294Z,67.50
2022-09-26T07:37:26.882Z,67.60
2022-09-26T07:40:00.713Z,67.60
2022-09-26T07:42:29.942Z,67.60
2022-09-26T07:48:02.281Z,67.70
2022-09-26T07:50:54.065Z,67.70
2022-09-26T07:53:34.250Z,67.70
2022-09-26T07:56:20.696Z,67.70
2022-09-26T07:59:05.263Z,67.80
2022-09-26T08:01:54.595Z,67.80
2022-09-26T08:04:39.817Z,67.70
2022-09-26T08:07:08.531Z,67.80
2022-09-26T08:09:40.017Z,67.90
2022-09-26T08:12:27.012Z,67.90
2022-09-26T08:15:10.362Z,68.00
2022-09-26T08:17:44.313Z,68.00
2022-09-26T08:20:11.694Z,68.00
2022-09-26T08:22:38.899Z,68.00
2022-09-26T08:25:07.205Z,68.10
2022-09-26T08:27:58.346Z,68.10
2022-09-26T08:30:31.362Z,68.10
2022-09-26T08:33:02.106Z,68.20
2022-09-26T08:35:35.892Z,68.30
2022-09-26T08:38:15.221Z,68.40
2022-09-26T08:41:21.540Z,68.40
2022-09-26T08:44:57.730Z,68.60
2022-09-26T08:47:46.711Z,68.80
2022-09-26T08:50:49.179Z,69.00
2022-09-26T08:53:34.593Z,69.00
2022-09-26T08:56:07.968Z,69.20
2022-09-26T08:58:45.303Z,69.50
2022-09-26T09:01:25.091Z,69.90
2022-09-26T09:04:23.393Z,70.00
2022-09-26T09:06:55.774Z,70.10
2022-09-26T09:09:24.332Z,70.30
2022-09-26T09:12:24.247Z,70.40
2022-09-26T09:15:38.174Z,70.70
2022-09-26T09:18:47.646Z,70.70
2022-09-26T09:21:56.878Z,70.90
2022-09-26T09:24:52.200Z,70.90
2022-09-26T09:30:55.182Z,71.20
2022-09-26T09:33:47.354Z,71.30
2022-09-26T09:36:23.637Z,71.40
2022-09-26T09:39:08.650Z,71.50
2022-09-26T09:41:59.761Z,72.70
2022-09-26T09:44:46.917Z,71.70
2022-09-26T09:47:18.440Z,72.10
2022-09-26T09:49:50.758Z,72.00
2022-09-26T09:52:36.033Z,72.10
2022-09-26T09:55:16.627Z,72.20
2022-09-26T09:58:02.588Z,72.40
2022-09-26T10:00:36.768Z,72.50
2022-09-26T10:03:26.797Z,72.60
2022-09-26T10:05:58.689Z,72.60
2022-09-26T10:08:41.782Z,72.60
2022-09-26T10:11:42.053Z,72.60
2022-09-26T10:14:41.583Z,72.60
2022-09-26T10:17:11.291Z,72.70
2022-09-26T10:19:53.328Z,72.60
2022-09-26T10:22:26.554Z,72.80
2022-09-26T10:25:01.760Z,73.00
2022-09-26T10:27:36.856Z,73.20
2022-09-26T10:30:25.737Z,73.20
2022-09-26T10:32:58.958Z,73.30
2022-09-26T10:35:45.783Z,73.20
2022-09-26T10:38:29.657Z,73.20
2022-09-26T10:41:24.051Z,73.40
2022-09-26T10:43:55.545Z,73.50
2022-09-26T10:46:49.641Z,73.40
2022-09-26T10:50:26.216Z,73.50
2022-09-26T10:53:14.981Z,73.60
2022-09-26T10:55:56.438Z,73.60
2022-09-26T10:58:29.531Z,73.80
2022-09-26T11:01:03.512Z,73.70
2022-09-26T11:03:40.281Z,73.70
2022-09-26T11:06:28.408Z,73.80
2022-09-26T11:09:04.563Z,73.90
2022-09-26T11:11:57.527Z,73.90
2022-09-26T11:14:32.676Z,74.00
2022-09-26T11:17:11.694Z,74.00
2022-09-26T11:19:54.685Z,74.00
2022-09-26T11:22:40.419Z,74.30
2022-09-26T11:25:15.037Z,74.40
2022-09-26T11:27:51.268Z,74.40
2022-09-26T11:30:39.664Z,74.60
2022-09-26T11:33:14.233Z,74.60
2022-09-26T11:36:10.902Z,74.70
2022-09-26T11:38:50.765Z,74.60
2022-09-26T11:41:42.101Z,74.70
2022-09-26T11:45:04.674Z,74.80
2022-09-26T11:48:06.777Z,74.90
2022-09-26T11:51:12.343Z,74.80
2022-09-26T11:54:02.584Z,74.90
2022-09-26T11:57:08.611Z,74.90
2022-09-26T11:59:50.563Z,75.00
2022-09-26T12:02:56.064Z,75.10
2022-09-26T12:05:51.954Z,75.00
2022-09-26T12:08:51.693Z,75.00
2022-09-26T12:11:38.024Z,75.10
2022-09-26T12:14:16.962Z,75.20
2022-09-26T12:16:59.222Z,75.20
2022-09-26T12:19:36.634Z,75.40
2022-09-26T12:22:29.056Z,75.40
2022-09-26T12:25:17.914Z,75.50
2022-09-26T12:28:15.352Z,75.50
2022-09-26T12:30:52.013Z,75.50
2022-09-26T12:33:41.341Z,75.60
2022-09-26T12:36:48.068Z,75.70
2022-09-26T12:39:41.973Z,75.80
2022-09-26T12:42:26.610Z,75.70
2022-09-26T12:45:11.572Z,75.80
2022-09-26T12:47:57.141Z,76.00
2022-09-26T12:50:33.878Z,76.00
2022-09-26T12:53:11.378Z,76.10
2022-09-26T12:56:07.079Z,75.90
2022-09-26T12:59:01.010Z,76.10
2022-09-26T13:01:34.921Z,76.00
2022-09-26T13:04:21.920Z,76.10
2022-09-26T13:07:20.452Z,76.10
2022-09-26T13:10:16.856Z,76.10
2022-09-26T13:12:45.249Z,76.10
2022-09-26T13:15:35.045Z,76.10
2022-09-26T13:18:08.977Z,76.30
2022-09-26T13:20:41.174Z,76.30
2022-09-26T13:23:14.308Z,76.30
2022-09-26T13:25:52.530Z,76.40
2022-09-26T13:28:23.537Z,76.30
2022-09-26T13:30:59.949Z,76.30
2022-09-26T13:33:36.041Z,76.20
2022-09-26T13:36:04.522Z,76.20
2022-09-26T13:38:41.309Z,76.20
2022-09-26T13:41:34.013Z,76.10
2022-09-26T13:44:33.077Z,76.20
2022-09-26T13:47:37.836Z,76.20
2022-09-26T13:50:18.490Z,76.30
2022-09-26T13:53:12.935Z,76.20
2022-09-26T13:55:42.782Z,76.20
2022-09-26T13:58:26.436Z,76.10
2022-09-26T14:00:53.496Z,76.20
2022-09-26T14:03:20.513Z,76.10
2022-09-26T14:05:51.050Z,76.20
2022-09-26T14:08:50.032Z,76.20
2022-09-26T14:11:33.974Z,76.50
2022-09-26T14:14:19.176Z,76.50
2022-09-26T14:16:57.426Z,76.60
2022-09-26T14:19:45.712Z,76.50
2022-09-26T14:22:18.916Z,76.60
2022-09-26T14:24:49.878Z,76.60
2022-09-26T14:27:36.343Z,76.60
2022-09-26T14:30:25.339Z,76.60
2022-09-26T14:33:00.111Z,76.70
2022-09-26T14:35:36.019Z,76.60
2022-09-26T14:38:17.181Z,76.70
2022-09-26T14:40:56.428Z,76.70
2022-09-26T14:43:27.588Z,76.60
2022-09-26T14:46:17.174Z,76.50
2022-09-26T14:48:45.022Z,76.60
2022-09-26T14:51:12.332Z,76.50
2022-09-26T14:53:54.779Z,76.40
2022-09-26T14:56:29.262Z,76.60
2022-09-26T14:59:29.611Z,76.60
2022-09-26T15:02:15.231Z,76.60
2022-09-26T15:04:49.692Z,76.60
2022-09-26T15:07:21.326Z,76.50
2022-09-26T15:09:58.714Z,76.60
2022-09-26T15:12:44.410Z,76.60
2022-09-26T15:15:36.564Z,76.60
2022-09-26T15:18:25.646Z,76.40
2022-09-26T15:21:04.206Z,76.30
2022-09-26T15:23:45.462Z,76.30
2022-09-26T15:26:14.030Z,76.20
2022-09-26T15:28:40.843Z,76.20
2022-09-26T15:31:37.219Z,76.20
2022-09-26T15:34:25.779Z,76.10
2022-09-26T15:36:56.487Z,75.90
2022-09-26T15:39:32.735Z,75.80
2022-09-26T15:42:19.135Z,75.80
2022-09-26T15:44:55.379Z,75.70
2022-09-26T15:47:39.239Z,75.70
2022-09-26T15:50:23.324Z,75.70
2022-09-26T15:52:59.155Z,75.70
2022-09-26T15:55:30.622Z,75.60
2022-09-26T15:58:01.108Z,75.80
2022-09-26T16:00:35.957Z,75.80
2022-09-26T16:03:25.877Z,75.90
2022-09-26T16:05:54.580Z,76.00
2022-09-26T16:08:23.843Z,75.70
2022-09-26T16:11:00.119Z,75.90
2022-09-26T16:13:33.073Z,76.00
2022-09-26T16:16:06.457Z,75.90
2022-09-26T16:18:40.146Z,76.00
2022-09-26T16:21:24.266Z,76.00
2022-09-26T16:23:57.271Z,76.20
2022-09-26T16:26:32.492Z,76.00
2022-09-26T16:29:00.336Z,76.00
2022-09-26T16:31:47.968Z,76.00
2022-09-26T16:34:28.985Z,76.20
2022-09-26T16:36:56.711Z,76.20
2022-09-26T16:39:29.767Z,76.00
2022-09-26T16:42:12.939Z,76.00
2022-09-26T16:44:42.596Z,76.20
2022-09-26T16:47:49.942Z,76.10
2022-09-26T16:50:31.220Z,76.10
2022-09-26T16:52:58.256Z,76.10
2022-09-26T16:55:26.174Z,76.00
2022-09-26T16:58:01.572Z,76.00
2022-09-26T17:00:52.387Z,76.10
2022-09-26T17:03:31.210Z,76.10
2022-09-26T17:05:59.691Z,76.00
2022-09-26T17:08:27.652Z,76.00
2022-09-26T17:10:56.579Z,76.00
2022-09-26T17:13:26.282Z,75.90
2022-09-26T17:15:58.140Z,75.90
2022-09-26T17:18:29.292Z,76.90
2022-09-26T17:20:59.085Z,75.90
2022-09-26T17:23:42.717Z,75.80
2022-09-26T17:26:19.952Z,75.80
2022-09-26T17:28:47.396Z,75.70
2022-09-26T17:31:20.112Z,75.60
2022-09-26T17:33:49.769Z,75.60
2022-09-26T17:36:28.330Z,75.50
2022-09-26T17:38:59.241Z,75.50
2022-09-26T17:41:27.885Z,75.60
2022-09-26T17:43:59.906Z,75.40
2022-09-26T17:46:27.925Z,75.40
2022-09-26T17:48:56.229Z,75.40
2022-09-26T17:51:24.107Z,75.40
2022-09-26T17:53:52.653Z,75.30
2022-09-26T17:56:20.340Z,75.40
2022-09-26T17:58:48.540Z,75.40
2022-09-26T18:01:27.451Z,75.40
2022-09-26T18:04:02.613Z,75.40
2022-09-26T18:06:32.899Z,75.30
2022-09-26T18:09:10.284Z,75.30
2022-09-26T18:11:37.948Z,75.30
2022-09-26T18:14:07.242Z,75.20
2022-09-26T18:16:34.209Z,75.20
2022-09-26T18:19:06.255Z,75.10
2022-09-26T18:21:40.155Z,75.10
2022-09-26T18:24:19.234Z,75.10
2022-09-26T18:26:50.190Z,75.00
2022-09-26T18:29:26.084Z,75.00
2022-09-26T18:31:56.121Z,75.00
2022-09-26T18:34:25.985Z,74.90
2022-09-26T18:36:56.981Z,74.90
2022-09-26T18:39:25.094Z,74.90
2022-09-26T18:42:09.173Z,74.80
2022-09-26T18:44:36.895Z,74.80
2022-09-26T18:47:07.862Z,74.70
2022-09-26T18:49:36.827Z,74.70
2022-09-26T18:52:04.130Z,75.10
2022-09-26T18:54:33.661Z,74.60
2022-09-26T18:57:19.444Z,74.60
2022-09-26T18:59:46.370Z,74.50
2022-09-26T19:02:21.326Z,74.50
2022-09-26T19:04:49.124Z,74.50
2022-09-26T19:07:20.995Z,74.50
2022-09-26T19:09:49.587Z,74.30
2022-09-26T19:12:17.365Z,74.30
2022-09-26T19:14:44.363Z,74.30
2022-09-26T19:17:11.975Z,74.20
2022-09-26T19:19:39.047Z,74.20
2022-09-26T19:22:12.695Z,74.10
2022-09-26T19:24:48.672Z,74.10
2022-09-26T19:27:38.770Z,74.10
2022-09-26T19:30:16.779Z,74.00
2022-09-26T19:32:48.245Z,73.90
2022-09-26T19:35:30.687Z,73.80
2022-09-26T19:37:59.232Z,73.80
2022-09-26T19:40:26.748Z,73.70
2022-09-26T19:42:54.938Z,73.60
2022-09-26T19:45:22.178Z,73.60
2022-09-26T19:47:54.421Z,73.60
2022-09-26T19:50:24.037Z,73.20
2022-09-26T19:52:52.439Z,73.10
2022-09-26T19:55:24.235Z,73.20
2022-09-26T19:57:52.524Z,73.40
2022-09-26T20:00:20.010Z,73.40
2022-09-26T20:02:50.652Z,73.50
2022-09-26T20:05:23.204Z,73.30
2022-09-26T20:07:50.809Z,73.30
2022-09-26T20:10:25.216Z,73.10
2022-09-26T20:12:52.457Z,73.20
2022-09-26T20:15:22.954Z,73.10
2022-09-26T20:17:50.856Z,73.20
2022-09-26T20:20:23.901Z,73.00
2022-09-26T20:22:53.121Z,73.10
2022-09-26T20:25:29.076Z,73.00
2022-09-26T20:27:56.778Z,73.10
2022-09-26T20:30:42.743Z,73.10
2022-09-26T20:33:10.651Z,73.10
2022-09-26T20:35:42.457Z,73.10
2022-09-26T20:38:18.365Z,73.00
2022-09-26T20:40:46.312Z,73.00
2022-09-26T20:43:19.413Z,73.00
2022-09-26T20:45:46.452Z,73.00
2022-09-26T20:48:20.996Z,72.90
2022-09-26T20:50:48.919Z,72.80
2022-09-26T20:53:18.407Z,72.70
2022-09-26T20:55:49.001Z,72.60
2022-09-26T20:58:16.108Z,72.60
2022-09-26T21:00:45.108Z,73.60
2022-09-26T21:03:14.113Z,72.50
2022-09-26T21:05:42.003Z,72.50
2022-09-26T21:08:25.511Z,72.40
2022-09-26T21:10:54.681Z,72.40
2022-09-26T21:13:21.645Z,73.40
2022-09-26T21:15:48.669Z,72.30
2022-09-26T21:18:29.663Z,72.20
2022-09-26T21:21:06.672Z,72.20
2022-09-26T21:23:48.425Z,72.20
2022-09-26T21:26:27.396Z,72.10
2022-09-26T21:28:55.849Z,72.10
2022-09-26T21:31:32.062Z,72.00
2022-09-26T21:34:00.189Z,72.00
2022-09-26T21:36:35.108Z,72.00
2022-09-26T21:39:02.942Z,72.00
2022-09-26T21:41:30.193Z,71.90
2022-09-26T21:44:02.062Z,71.90
2022-09-26T21:46:29.142Z,71.80
2022-09-26T21:48:56.279Z,71.80
2022-09-26T21:51:26.220Z,71.80
2022-09-26T21:54:09.510Z,71.70
2022-09-26T21:56:46.641Z,71.70
2022-09-26T21:59:13.516Z,71.60
2022-09-26T22:01:40.364Z,71.60
2022-09-26T22:04:07.481Z,71.60
2022-09-26T22:06:34.722Z,71.70
2022-09-26T22:09:01.728Z,71.70
2022-09-26T22:11:28.625Z,71.60
2022-09-26T22:13:55.569Z,71.60
2022-09-26T22:16:22.530Z,71.60
2022-09-26T22:18:49.466Z,71.60
2022-09-26T22:21:16.297Z,71.50
2022-09-26T22:23:43.144Z,71.50
2022-09-26T22:26:10.018Z,71.50
2022-09-26T22:28:36.963Z,71.50
2022-09-26T22:31:05.345Z,71.40
2022-09-26T22:33:33.529Z,71.40
2022-09-26T22:36:00.822Z,71.40
2022-09-26T22:38:27.771Z,71.40
2022-09-26T22:40:59.842Z,71.30
2022-09-26T22:43:27.800Z,71.20
2022-09-26T22:46:07.688Z,71.20
2022-09-26T22:48:37.696Z,71.20
2022-09-26T22:51:05.397Z,71.20
2022-09-26T22:53:34.240Z,71.20
2022-09-26T22:56:05.275Z,71.10
2022-09-26T22:58:48.345Z,71.10
2022-09-26T23:01:24.256Z,71.10
2022-09-26T23:03:54.893Z,71.00
2022-09-26T23:06:24.046Z,72.10
2022-09-26T23:08:51.745Z,71.00
2022-09-26T23:11:19.026Z,71.00
2022-09-26T23:13:51.978Z,70.90
2022-09-26T23:16:21.435Z,70.90
2022-09-26T23:18:49.592Z,70.90
2022-09-26T23:21:21.689Z,70.80
2022-09-26T23:23:51.514Z,70.80
2022-09-26T23:26:22.063Z,70.80
2022-09-26T23:28:50.606Z,70.70
2022-09-26T23:31:17.854Z,70.70
2022-09-26T23:33:44.835Z,70.70
2022-09-26T23:36:12.579Z,70.60
2022-09-26T23:38:40.569Z,70.60
2022-09-26T23:41:08.955Z,70.50
2022-09-26T23:43:35.892Z,70.50
2022-09-26T23:46:06.017Z,70.50
2022-09-26T23:48:33.435Z,70.40
2022-09-26T23:51:00.921Z,70.40
2022-09-26T23:53:27.924Z,70.40
2022-09-26T23:56:03.849Z,70.30
2022-09-26T23:58:30.866Z,70.20
